createdAt,value
2019-03-16T00:00:23.857Z,62.84
2019-03-16T00:01:24.127Z,63.15
2019-03-16T00:02:24.470Z,61.70
2019-03-16T00:03:24.767Z,62.74
2019-03-16T00:04:25.065Z,63.04
2019-03-16T00:05:25.385Z,63.04
2019-03-16T00:06:25.672Z,63.15
2019-03-16T00:07:32.874Z,63.25
2019-03-16T00:08:27.283Z,62.81
2019-03-16T00:09:26.588Z,62.74
2019-03-16T00:10:26.918Z,63.15
2019-03-16T00:11:27.208Z,63.04
2019-03-16T00:12:27.530Z,63.15
2019-03-16T00:13:27.827Z,63.87
2019-03-16T00:14:28.128Z,63.56
2019-03-16T00:15:28.516Z,63.46
2019-03-16T00:16:28.721Z,63.87
2019-03-16T00:17:29.076Z,64.39
2019-03-16T00:18:29.349Z,64.28
2019-03-16T00:19:29.666Z,64.18
2019-03-16T00:20:29.971Z,63.87
2019-03-16T00:21:30.263Z,63.15
2019-03-16T00:22:30.620Z,63.35
2019-03-16T00:23:30.905Z,63.46
2019-03-16T00:24:31.160Z,63.87
2019-03-16T00:25:31.501Z,64.28
2019-03-16T00:26:31.790Z,63.87
2019-03-16T00:27:32.151Z,63.79
2019-03-16T00:28:32.415Z,63.46
2019-03-16T00:29:32.722Z,64.00
2019-03-16T00:30:33.021Z,64.90
2019-03-16T00:31:33.403Z,64.52
2019-03-16T00:32:33.724Z,64.52
2019-03-16T00:33:33.946Z,63.49
2019-03-16T00:34:34.261Z,63.49
2019-03-16T00:35:34.563Z,63.56
2019-03-16T00:36:34.870Z,64.70
2019-03-16T00:37:35.181Z,64.42
2019-03-16T00:38:35.473Z,63.90
2019-03-16T00:39:35.815Z,64.42
2019-03-16T00:40:36.197Z,64.59
2019-03-16T00:41:36.397Z,64.73
2019-03-16T00:42:36.711Z,64.93
2019-03-16T00:43:37.028Z,64.62
2019-03-16T00:44:37.355Z,64.59
2019-03-16T00:45:37.637Z,65.14
2019-03-16T00:46:37.930Z,64.83
2019-03-16T00:47:38.258Z,65.24
2019-03-16T00:48:38.695Z,65.45
2019-03-16T00:49:38.895Z,65.03
2019-03-16T00:50:39.185Z,65.03
2019-03-16T00:51:39.475Z,64.83
2019-03-16T00:52:39.797Z,65.24
2019-03-16T00:53:40.124Z,64.93
2019-03-16T00:54:40.429Z,65.14
2019-03-16T00:55:40.736Z,65.52
2019-03-16T00:56:41.080Z,65.55
2019-03-16T00:57:41.295Z,65.14
2019-03-16T00:58:41.637Z,65.00
2019-03-16T00:59:41.951Z,65.34
2019-03-16T01:00:42.259Z,65.55
2019-03-16T01:01:42.545Z,65.37
2019-03-16T01:02:42.849Z,65.89
2019-03-16T01:03:43.151Z,65.55
2019-03-16T01:04:43.522Z,65.48
2019-03-16T01:05:43.800Z,65.79
2019-03-16T01:06:44.090Z,65.89
2019-03-16T01:07:44.397Z,66.30
2019-03-16T01:08:44.737Z,66.30
2019-03-16T01:09:44.994Z,66.30
2019-03-16T01:10:45.332Z,66.10
2019-03-16T01:11:45.622Z,66.72
2019-03-16T01:12:45.943Z,66.10
2019-03-16T01:13:46.364Z,66.20
2019-03-16T01:14:46.542Z,67.34
2019-03-16T01:15:46.879Z,66.93
2019-03-16T01:16:47.165Z,66.61
2019-03-16T01:17:47.474Z,67.13
2019-03-16T01:18:47.838Z,67.96
2019-03-16T01:19:48.083Z,67.44
2019-03-16T01:20:48.397Z,67.44
2019-03-16T01:21:48.784Z,67.34
2019-03-16T01:22:49.000Z,67.24
2019-03-16T01:23:49.344Z,67.13
2019-03-16T01:24:49.622Z,67.44
2019-03-16T01:25:49.947Z,67.34
2019-03-16T01:26:50.244Z,67.13
2019-03-16T01:27:50.660Z,67.96
2019-03-16T01:28:50.886Z,67.03
2019-03-16T01:29:51.295Z,67.85
2019-03-16T01:30:51.476Z,67.96
2019-03-16T01:31:51.760Z,67.65
2019-03-16T01:32:52.078Z,67.85
2019-03-16T01:33:52.403Z,68.06
2019-03-16T01:34:52.940Z,68.58
2019-03-16T01:35:53.038Z,69.20
2019-03-16T01:36:53.614Z,68.68
2019-03-16T01:37:53.648Z,68.99
2019-03-16T01:38:53.914Z,68.48
2019-03-16T01:39:54.223Z,68.58
2019-03-16T01:40:54.541Z,68.78
2019-03-16T01:41:54.824Z,68.99
2019-03-16T01:42:55.113Z,69.40
2019-03-16T01:43:55.462Z,69.09
2019-03-16T01:44:55.801Z,68.99
2019-03-16T01:45:56.102Z,69.02
2019-03-16T01:46:56.449Z,69.33
2019-03-16T01:47:56.699Z,69.30
2019-03-16T01:48:57.082Z,68.99
2019-03-16T01:49:57.370Z,69.09
2019-03-16T01:50:57.659Z,69.20
2019-03-16T01:51:57.977Z,68.99
2019-03-16T01:52:58.285Z,68.99
2019-03-16T01:53:58.619Z,69.30
2019-03-16T01:54:59.025Z,69.61
2019-03-16T01:55:59.206Z,69.64
2019-03-16T01:56:59.538Z,69.43
2019-03-16T01:57:59.815Z,69.51
2019-03-16T01:59:05.081Z,69.61
2019-03-16T02:00:00.444Z,69.71
2019-03-16T02:01:00.737Z,69.61
2019-03-16T02:02:01.051Z,69.51
2019-03-16T02:03:01.463Z,68.99
2019-03-16T02:04:01.670Z,69.40
2019-03-16T02:05:02.011Z,69.40
2019-03-16T02:06:02.285Z,69.30
2019-03-16T02:07:02.613Z,69.61
2019-03-16T02:08:02.895Z,69.51
2019-03-16T02:09:03.230Z,69.61
2019-03-16T02:10:03.539Z,69.82
2019-03-16T02:11:03.906Z,69.82
2019-03-16T02:12:04.137Z,69.82
2019-03-16T02:13:04.436Z,69.92
2019-03-16T02:14:04.752Z,70.12
2019-03-16T02:15:05.142Z,69.71
2019-03-16T02:16:11.092Z,69.51
2019-03-16T02:17:06.752Z,69.61
2019-03-16T02:18:06.064Z,69.71
2019-03-16T02:19:06.420Z,69.51
2019-03-16T02:20:06.676Z,69.61
2019-03-16T02:21:06.965Z,69.71
2019-03-16T02:22:07.285Z,69.71
2019-03-16T02:23:07.580Z,69.61
2019-03-16T02:24:07.915Z,69.61
2019-03-16T02:25:08.233Z,68.78
2019-03-16T02:26:08.517Z,68.88
2019-03-16T02:27:08.866Z,68.78
2019-03-16T02:28:09.190Z,68.78
2019-03-16T02:29:09.486Z,69.20
2019-03-16T02:30:09.781Z,68.75
2019-03-16T02:31:10.091Z,68.75
2019-03-16T02:32:10.426Z,68.75
2019-03-16T02:33:13.033Z,69.30
2019-03-16T02:34:11.009Z,68.88
2019-03-16T02:35:11.318Z,68.88
2019-03-16T02:36:11.759Z,68.99
2019-03-16T02:37:11.941Z,69.20
2019-03-16T02:38:12.210Z,68.58
2019-03-16T02:39:12.580Z,68.68
2019-03-16T02:40:12.849Z,68.78
2019-03-16T02:41:13.164Z,68.99
2019-03-16T02:42:13.479Z,68.78
2019-03-16T02:43:13.773Z,69.30
2019-03-16T02:44:14.169Z,69.20
2019-03-16T02:45:14.387Z,69.09
2019-03-16T02:46:14.699Z,69.09
2019-03-16T02:47:15.009Z,69.71
2019-03-16T02:48:15.297Z,69.51
2019-03-16T02:49:15.626Z,69.51
2019-03-16T02:50:15.897Z,69.61
2019-03-16T02:51:16.228Z,69.92
2019-03-16T02:52:16.640Z,69.71
2019-03-16T02:53:16.812Z,69.51
2019-03-16T02:54:17.147Z,69.64
2019-03-16T02:55:17.408Z,69.51
2019-03-16T02:56:17.748Z,69.92
2019-03-16T02:57:18.076Z,69.64
2019-03-16T02:58:18.367Z,69.64
2019-03-16T02:59:18.680Z,70.06
2019-03-16T03:00:19.020Z,69.92
2019-03-16T03:01:19.256Z,70.16
2019-03-16T03:02:19.609Z,70.16
2019-03-16T03:03:29.443Z,70.16
2019-03-16T03:04:21.197Z,70.26
2019-03-16T03:05:20.527Z,70.47
2019-03-16T03:06:20.838Z,70.47
2019-03-16T03:07:21.139Z,70.47
2019-03-16T03:08:21.466Z,70.57
2019-03-16T03:09:21.897Z,70.47
2019-03-16T03:10:22.088Z,70.78
2019-03-16T03:11:22.403Z,70.67
2019-03-16T03:12:22.707Z,70.64
2019-03-16T03:13:23.240Z,70.67
2019-03-16T03:14:23.565Z,70.67
2019-03-16T03:15:23.886Z,70.78
2019-03-16T03:16:24.190Z,70.47
2019-03-16T03:17:24.619Z,70.67
2019-03-16T03:18:24.793Z,70.78
2019-03-16T03:19:25.109Z,70.92
2019-03-16T03:20:25.437Z,70.98
2019-03-16T03:21:25.731Z,70.75
2019-03-16T03:22:26.056Z,70.78
2019-03-16T03:23:26.328Z,70.81
2019-03-16T03:24:26.626Z,71.09
2019-03-16T03:25:27.134Z,70.98
2019-03-16T03:26:27.249Z,70.88
2019-03-16T03:27:27.576Z,71.19
2019-03-16T03:28:27.851Z,70.98
2019-03-16T03:29:28.158Z,70.88
2019-03-16T03:30:28.498Z,71.53
2019-03-16T03:31:28.822Z,71.64
2019-03-16T03:32:29.130Z,71.33
2019-03-16T03:33:55.298Z,71.40
2019-03-16T03:34:30.681Z,72.12
2019-03-16T03:35:30.015Z,71.84
2019-03-16T03:36:30.330Z,71.30
2019-03-16T03:37:30.643Z,71.30
2019-03-16T03:38:30.931Z,71.40
2019-03-16T03:39:31.258Z,71.71
2019-03-16T03:40:31.567Z,71.50
2019-03-16T03:41:31.889Z,71.81
2019-03-16T03:42:32.217Z,71.50
2019-03-16T03:43:32.473Z,71.74
2019-03-16T03:44:32.784Z,71.50
2019-03-16T03:45:33.104Z,71.33
2019-03-16T03:46:33.389Z,71.84
2019-03-16T03:47:33.713Z,72.05
2019-03-16T03:48:34.018Z,71.84
2019-03-16T03:49:34.379Z,71.53
2019-03-16T03:50:34.795Z,71.64
2019-03-16T03:51:34.931Z,71.74
2019-03-16T03:52:35.264Z,71.74
2019-03-16T03:53:35.550Z,72.12
2019-03-16T03:54:35.860Z,71.74
2019-03-16T03:55:36.183Z,71.64
2019-03-16T03:56:36.473Z,71.53
2019-03-16T03:57:36.808Z,71.53
2019-03-16T03:58:37.208Z,71.74
2019-03-16T03:59:37.385Z,71.74
2019-03-16T04:00:37.708Z,71.95
2019-03-16T04:01:37.997Z,72.05
2019-03-16T04:02:38.299Z,72.26
2019-03-16T04:03:38.618Z,72.05
2019-03-16T04:04:38.927Z,72.47
2019-03-16T04:05:39.252Z,72.36
2019-03-16T04:06:39.618Z,72.67
2019-03-16T04:07:39.815Z,72.36
2019-03-16T04:08:40.158Z,72.88
2019-03-16T04:09:40.481Z,72.57
2019-03-16T04:10:40.808Z,72.36
2019-03-16T04:11:41.113Z,72.57
2019-03-16T04:12:41.399Z,72.26
2019-03-16T04:13:41.749Z,72.26
2019-03-16T04:14:42.075Z,72.22
2019-03-16T04:15:42.348Z,71.92
2019-03-16T04:16:42.654Z,72.22
2019-03-16T04:17:42.947Z,72.12
2019-03-16T04:18:43.275Z,72.02
2019-03-16T04:19:43.553Z,72.12
2019-03-16T04:20:43.883Z,72.22
2019-03-16T04:21:44.193Z,72.22
2019-03-16T04:22:44.562Z,72.12
2019-03-16T04:23:44.936Z,72.12
2019-03-16T04:24:45.549Z,72.22
2019-03-16T04:25:45.418Z,71.92
2019-03-16T04:26:45.722Z,72.02
2019-03-16T04:27:46.041Z,71.98
2019-03-16T04:28:46.367Z,72.02
2019-03-16T04:29:46.645Z,72.02
2019-03-16T04:30:46.977Z,72.19
2019-03-16T04:31:47.375Z,72.22
2019-03-16T04:32:47.571Z,72.64
2019-03-16T04:33:47.883Z,72.43
2019-03-16T04:34:48.167Z,72.85
2019-03-16T04:35:48.493Z,72.91
2019-03-16T04:36:48.768Z,72.61
2019-03-16T04:37:49.105Z,72.64
2019-03-16T04:38:49.423Z,72.53
2019-03-16T04:39:49.845Z,73.22
2019-03-16T04:40:50.030Z,72.30
2019-03-16T04:41:50.291Z,73.02
2019-03-16T04:42:50.632Z,72.64
2019-03-16T04:43:50.947Z,72.50
2019-03-16T04:44:51.239Z,72.09
2019-03-16T04:45:51.562Z,72.85
2019-03-16T04:46:51.851Z,72.64
2019-03-16T04:47:52.202Z,72.33
2019-03-16T04:48:52.466Z,72.43
2019-03-16T04:49:52.761Z,73.26
2019-03-16T04:50:53.324Z,72.64
2019-03-16T04:51:53.375Z,72.74
2019-03-16T04:52:53.691Z,72.74
2019-03-16T04:53:53.984Z,72.02
2019-03-16T04:54:54.275Z,72.33
2019-03-16T04:55:54.896Z,72.95
2019-03-16T04:56:54.887Z,72.53
2019-03-16T04:57:55.215Z,72.74
2019-03-16T04:58:55.521Z,72.74
2019-03-16T04:59:55.801Z,72.74
2019-03-16T05:00:56.141Z,72.74
2019-03-16T05:01:56.429Z,73.47
2019-03-16T05:02:56.746Z,72.74
2019-03-16T05:03:57.077Z,73.05
2019-03-16T05:04:57.404Z,73.05
2019-03-16T05:05:57.675Z,73.16
2019-03-16T05:06:57.962Z,73.36
2019-03-16T05:07:58.279Z,73.36
2019-03-16T05:08:58.592Z,73.36
2019-03-16T05:09:58.882Z,73.71
2019-03-16T05:10:59.192Z,73.81
2019-03-16T05:11:59.494Z,74.33
2019-03-16T05:12:59.921Z,73.71
2019-03-16T05:14:00.120Z,73.50
2019-03-16T05:15:00.556Z,73.67
2019-03-16T05:16:00.735Z,73.60
2019-03-16T05:17:01.048Z,73.50
2019-03-16T05:18:01.358Z,74.02
2019-03-16T05:19:01.676Z,73.60
2019-03-16T05:20:01.955Z,74.02
2019-03-16T05:21:02.313Z,73.91
2019-03-16T05:22:02.556Z,73.60
2019-03-16T05:23:02.925Z,73.81
2019-03-16T05:24:03.192Z,73.71
2019-03-16T05:25:03.478Z,73.71
2019-03-16T05:26:03.788Z,73.81
2019-03-16T05:27:04.093Z,73.60
2019-03-16T05:28:04.424Z,73.60
2019-03-16T05:29:04.782Z,74.43
2019-03-16T05:30:05.026Z,74.02
2019-03-16T05:31:05.340Z,74.33
2019-03-16T05:32:05.655Z,74.43
2019-03-16T05:33:05.960Z,74.43
2019-03-16T05:34:06.329Z,74.43
2019-03-16T05:35:06.580Z,74.12
2019-03-16T05:36:06.890Z,74.43
2019-03-16T05:37:07.243Z,74.50
2019-03-16T05:38:07.546Z,73.50
2019-03-16T05:39:07.825Z,73.60
2019-03-16T05:40:08.114Z,73.71
2019-03-16T05:41:08.420Z,73.60
2019-03-16T05:42:08.743Z,74.19
2019-03-16T05:43:09.044Z,74.02
2019-03-16T05:44:09.336Z,73.57
2019-03-16T05:45:09.668Z,73.47
2019-03-16T05:46:10.085Z,74.08
2019-03-16T05:47:10.302Z,73.88
2019-03-16T05:48:10.581Z,73.98
2019-03-16T05:49:10.889Z,73.88
2019-03-16T05:50:11.199Z,74.08
2019-03-16T05:51:11.496Z,74.08
2019-03-16T05:52:11.822Z,73.77
2019-03-16T05:53:12.118Z,73.77
2019-03-16T05:54:12.551Z,73.98
2019-03-16T05:55:12.740Z,73.67
2019-03-16T05:56:13.041Z,73.88
2019-03-16T05:57:13.351Z,73.88
2019-03-16T05:58:13.654Z,73.47
2019-03-16T05:59:13.965Z,73.77
2019-03-16T06:00:14.236Z,73.77
2019-03-16T06:01:14.559Z,73.02
2019-03-16T06:02:14.919Z,73.36
2019-03-16T06:03:15.167Z,73.47
2019-03-16T06:04:15.483Z,73.47
2019-03-16T06:05:15.757Z,73.22
2019-03-16T06:06:16.081Z,73.36
2019-03-16T06:07:16.417Z,73.47
2019-03-16T06:08:16.716Z,73.36
2019-03-16T06:09:17.030Z,73.43
2019-03-16T06:10:17.342Z,73.64
2019-03-16T06:11:17.586Z,73.33
2019-03-16T06:12:17.932Z,73.74
2019-03-16T06:13:18.367Z,73.43
2019-03-16T06:14:18.550Z,73.22
2019-03-16T06:15:18.844Z,73.12
2019-03-16T06:16:19.152Z,73.22
2019-03-16T06:17:19.462Z,73.43
2019-03-16T06:18:19.836Z,73.54
2019-03-16T06:19:20.176Z,72.91
2019-03-16T06:20:20.393Z,73.02
2019-03-16T06:21:20.701Z,72.71
2019-03-16T06:22:21.004Z,73.64
2019-03-16T06:23:21.329Z,73.22
2019-03-16T06:24:21.624Z,72.81
2019-03-16T06:25:21.942Z,72.50
2019-03-16T06:26:22.247Z,72.91
2019-03-16T06:27:22.665Z,72.30
2019-03-16T06:28:22.863Z,72.71
2019-03-16T06:29:23.399Z,72.67
2019-03-16T06:30:23.480Z,72.57
2019-03-16T06:31:23.782Z,72.26
2019-03-16T06:32:24.112Z,72.06
2019-03-16T06:33:24.383Z,72.06
2019-03-16T06:34:24.724Z,72.16
2019-03-16T06:35:29.156Z,72.06
2019-03-16T06:36:25.342Z,72.16
2019-03-16T06:37:25.675Z,71.64
2019-03-16T06:38:25.942Z,71.23
2019-03-16T06:39:26.260Z,71.09
2019-03-16T06:40:26.589Z,71.30
2019-03-16T06:41:26.878Z,71.20
2019-03-16T06:42:27.202Z,70.99
2019-03-16T06:43:27.510Z,70.89
2019-03-16T06:44:27.782Z,70.75
2019-03-16T06:45:28.109Z,70.44
2019-03-16T06:46:28.415Z,70.34
2019-03-16T06:47:28.740Z,70.34
2019-03-16T06:48:29.021Z,70.44
2019-03-16T06:49:29.337Z,70.23
2019-03-16T06:50:29.655Z,70.54
2019-03-16T06:51:29.981Z,70.44
2019-03-16T06:52:30.297Z,70.03
2019-03-16T06:53:30.567Z,70.23
2019-03-16T06:54:30.889Z,70.34
2019-03-16T06:55:31.192Z,70.03
2019-03-16T06:56:31.458Z,70.34
2019-03-16T06:57:31.806Z,70.34
2019-03-16T06:58:32.093Z,70.23
2019-03-16T06:59:32.430Z,70.13
2019-03-16T07:00:32.829Z,70.34
2019-03-16T07:01:32.995Z,69.59
2019-03-16T07:02:33.335Z,69.76
2019-03-16T07:03:33.626Z,69.59
2019-03-16T07:04:33.949Z,69.69
2019-03-16T07:05:38.451Z,69.69
2019-03-16T07:06:34.541Z,69.59
2019-03-16T07:07:34.846Z,69.55
2019-03-16T07:08:35.280Z,69.38
2019-03-16T07:09:35.477Z,69.65
2019-03-16T07:10:35.782Z,69.79
2019-03-16T07:11:36.056Z,69.45
2019-03-16T07:12:36.383Z,69.14
2019-03-16T07:13:36.688Z,68.42
2019-03-16T07:14:37.014Z,68.32
2019-03-16T07:15:37.312Z,68.73
2019-03-16T07:16:37.655Z,69.14
2019-03-16T07:17:37.896Z,68.62
2019-03-16T07:18:38.208Z,68.93
2019-03-16T07:19:38.532Z,68.90
2019-03-16T07:20:38.856Z,68.59
2019-03-16T07:21:39.150Z,68.49
2019-03-16T07:22:39.469Z,68.49
2019-03-16T07:23:39.739Z,68.49
2019-03-16T07:24:40.112Z,68.29
2019-03-16T07:25:40.368Z,68.08
2019-03-16T07:26:40.665Z,67.84
2019-03-16T07:27:40.980Z,67.97
2019-03-16T07:28:41.273Z,68.29
2019-03-16T07:29:41.569Z,68.18
2019-03-16T07:30:41.911Z,68.18
2019-03-16T07:31:42.203Z,69.01
2019-03-16T07:32:42.549Z,68.90
2019-03-16T07:33:42.931Z,68.59
2019-03-16T07:34:43.126Z,68.29
2019-03-16T07:35:43.451Z,68.49
2019-03-16T07:36:43.762Z,69.01
2019-03-16T07:37:44.065Z,68.90
2019-03-16T07:38:44.381Z,68.29
2019-03-16T07:39:44.708Z,68.49
2019-03-16T07:40:45.026Z,68.70
2019-03-16T07:41:45.395Z,68.70
2019-03-16T07:42:45.615Z,68.05
2019-03-16T07:43:45.938Z,67.87
2019-03-16T07:44:46.234Z,67.33
2019-03-16T07:45:46.530Z,67.22
2019-03-16T07:46:46.821Z,67.84
2019-03-16T07:47:47.143Z,67.22
2019-03-16T07:48:47.465Z,67.50
2019-03-16T07:49:47.849Z,66.91
2019-03-16T07:50:48.062Z,67.50
2019-03-16T07:51:48.368Z,66.88
2019-03-16T07:52:48.693Z,66.37
2019-03-16T07:53:49.023Z,65.65
2019-03-16T07:54:49.319Z,66.64
2019-03-16T07:55:49.632Z,65.55
2019-03-16T07:56:49.923Z,65.92
2019-03-16T07:57:50.240Z,66.24
2019-03-16T07:58:50.541Z,65.95
2019-03-16T07:59:50.896Z,65.86
2019-03-16T08:00:51.159Z,65.92
2019-03-16T08:01:51.448Z,66.03
2019-03-16T08:02:51.739Z,65.83
2019-03-16T08:03:52.079Z,65.86
2019-03-16T08:04:52.392Z,66.54
2019-03-16T08:05:52.775Z,66.06
2019-03-16T08:06:52.977Z,65.92
2019-03-16T08:07:53.526Z,65.92
2019-03-16T08:08:53.601Z,65.83
2019-03-16T08:09:53.907Z,65.62
2019-03-16T08:10:54.242Z,66.24
2019-03-16T08:11:54.529Z,65.52
2019-03-16T08:12:54.850Z,65.72
2019-03-16T08:13:55.202Z,65.52
2019-03-16T08:14:55.547Z,65.59
2019-03-16T08:15:55.784Z,65.80
2019-03-16T08:16:56.067Z,65.17
2019-03-16T08:17:56.372Z,66.10
2019-03-16T08:18:56.693Z,65.08
2019-03-16T08:19:56.984Z,65.14
2019-03-16T08:20:57.298Z,65.05
2019-03-16T08:21:57.605Z,65.05
2019-03-16T08:22:58.028Z,64.73
2019-03-16T08:23:58.226Z,65.05
2019-03-16T08:24:58.509Z,64.87
2019-03-16T08:25:58.838Z,65.35
2019-03-16T08:26:59.148Z,65.28
2019-03-16T08:27:59.462Z,64.97
2019-03-16T08:28:59.829Z,64.87
2019-03-16T08:30:00.097Z,65.31
2019-03-16T08:31:00.440Z,66.10
2019-03-16T08:32:00.664Z,66.00
2019-03-16T08:33:00.983Z,65.38
2019-03-16T08:34:01.309Z,65.28
2019-03-16T08:35:01.617Z,65.08
2019-03-16T08:36:01.881Z,64.66
2019-03-16T08:37:02.194Z,64.76
2019-03-16T08:38:02.517Z,64.84
2019-03-16T08:39:02.922Z,64.32
2019-03-16T08:40:03.123Z,63.20
2019-03-16T08:41:03.430Z,64.73
2019-03-16T08:42:03.747Z,63.20
2019-03-16T08:43:04.036Z,64.43
2019-03-16T08:44:04.373Z,63.22
2019-03-16T08:45:04.761Z,64.22
2019-03-16T08:46:04.968Z,64.04
2019-03-16T08:47:05.352Z,64.73
2019-03-16T08:48:05.619Z,63.91
2019-03-16T08:49:05.928Z,62.99
2019-03-16T08:50:06.240Z,62.78
2019-03-16T08:51:06.526Z,63.09
2019-03-16T08:52:06.850Z,63.40
2019-03-16T08:53:07.142Z,62.88
2019-03-16T08:54:07.441Z,62.88
2019-03-16T08:55:07.795Z,63.50
2019-03-16T08:56:08.197Z,63.17
2019-03-16T08:57:08.398Z,62.37
2019-03-16T08:58:08.676Z,62.55
2019-03-16T08:59:08.997Z,62.78
2019-03-16T09:00:09.312Z,62.78
2019-03-16T09:01:09.608Z,62.78
2019-03-16T09:02:09.929Z,62.27
2019-03-16T09:03:10.223Z,62.88
2019-03-16T09:04:10.641Z,62.58
2019-03-16T09:05:10.839Z,62.85
2019-03-16T09:06:11.140Z,62.96
2019-03-16T09:07:11.461Z,62.75
2019-03-16T09:08:11.754Z,62.14
2019-03-16T09:09:12.077Z,61.35
2019-03-16T09:10:12.361Z,60.80
2019-03-16T09:11:12.673Z,61.55
2019-03-16T09:12:13.091Z,61.35
2019-03-16T09:13:13.283Z,61.96
2019-03-16T09:14:13.602Z,61.52
2019-03-16T09:15:13.889Z,61.72
2019-03-16T09:16:14.184Z,61.21
2019-03-16T09:17:14.527Z,60.77
2019-03-16T09:18:14.811Z,60.57
2019-03-16T09:19:15.136Z,60.70
2019-03-16T09:20:15.473Z,60.16
2019-03-16T09:21:15.693Z,60.91
2019-03-16T09:22:16.040Z,59.47
2019-03-16T09:23:16.358Z,59.34
2019-03-16T09:24:16.682Z,59.13
2019-03-16T09:25:16.982Z,59.88
2019-03-16T09:26:17.280Z,60.05
2019-03-16T09:27:30.113Z,60.26
2019-03-16T09:28:19.197Z,59.64
2019-03-16T09:29:18.300Z,60.57
2019-03-16T09:30:18.551Z,60.47
2019-03-16T09:31:18.864Z,59.64
2019-03-16T09:32:19.155Z,59.41
2019-03-16T09:33:19.532Z,59.41
2019-03-16T09:34:19.796Z,59.20
2019-03-16T09:35:20.087Z,59.11
2019-03-16T09:36:20.419Z,58.69
2019-03-16T09:37:20.812Z,58.87
2019-03-16T09:38:21.006Z,58.56
2019-03-16T09:39:21.311Z,58.77
2019-03-16T09:40:21.617Z,58.46
2019-03-16T09:41:21.939Z,58.44
2019-03-16T09:42:22.335Z,58.74
2019-03-16T09:43:22.530Z,58.54
2019-03-16T09:44:22.854Z,58.23
2019-03-16T09:45:23.320Z,57.71
2019-03-16T09:46:23.501Z,57.92
2019-03-16T09:47:24.045Z,58.33
2019-03-16T09:48:24.102Z,57.92
2019-03-16T09:49:24.410Z,58.23
2019-03-16T09:50:24.743Z,58.12
2019-03-16T09:51:25.055Z,57.75
2019-03-16T09:52:25.381Z,58.15
2019-03-16T09:53:25.723Z,58.49
2019-03-16T09:54:25.961Z,58.69
2019-03-16T09:55:26.286Z,58.67
2019-03-16T09:56:26.580Z,58.46
2019-03-16T09:57:26.907Z,58.15
2019-03-16T09:58:31.210Z,58.26
2019-03-16T09:59:27.500Z,58.33
2019-03-16T10:00:27.845Z,57.92
2019-03-16T10:01:28.193Z,58.61
2019-03-16T10:02:28.446Z,57.71
2019-03-16T10:03:28.732Z,58.33
2019-03-16T10:04:29.044Z,57.84
2019-03-16T10:05:29.368Z,57.20
2019-03-16T10:06:29.666Z,57.71
2019-03-16T10:07:29.967Z,57.41
2019-03-16T10:08:30.273Z,57.89
2019-03-16T10:09:30.598Z,57.10
2019-03-16T10:10:31.025Z,57.20
2019-03-16T10:11:31.178Z,56.87
2019-03-16T10:12:31.520Z,56.87
2019-03-16T10:13:31.824Z,56.87
2019-03-16T10:14:32.138Z,56.02
2019-03-16T10:15:32.462Z,55.64
2019-03-16T10:16:32.736Z,56.26
2019-03-16T10:17:33.071Z,54.53
2019-03-16T10:18:33.466Z,54.44
2019-03-16T10:19:33.667Z,55.02
2019-03-16T10:20:34.005Z,54.92
2019-03-16T10:21:34.286Z,54.82
2019-03-16T10:22:34.587Z,54.72
2019-03-16T10:23:34.884Z,54.72
2019-03-16T10:24:35.207Z,54.74
2019-03-16T10:25:35.534Z,54.92
2019-03-16T10:26:37.274Z,54.74
2019-03-16T10:27:36.130Z,55.33
2019-03-16T10:28:43.643Z,55.94
2019-03-16T10:29:37.744Z,55.23
2019-03-16T10:30:37.075Z,55.51
2019-03-16T10:31:37.346Z,55.62
2019-03-16T10:32:37.679Z,55.41
2019-03-16T10:33:37.961Z,54.59
2019-03-16T10:34:38.290Z,55.10
2019-03-16T10:35:38.575Z,55.41
2019-03-16T10:36:38.881Z,54.97
2019-03-16T10:37:39.213Z,54.77
2019-03-16T10:38:39.481Z,54.79
2019-03-16T10:39:39.793Z,54.90
2019-03-16T10:40:40.100Z,55.51
2019-03-16T10:41:40.423Z,55.41
2019-03-16T10:42:40.772Z,54.67
2019-03-16T10:43:41.075Z,54.90
2019-03-16T10:44:41.334Z,55.90
2019-03-16T10:45:41.642Z,54.05
2019-03-16T10:46:41.957Z,53.85
2019-03-16T10:47:42.256Z,54.38
2019-03-16T10:48:42.570Z,54.69
2019-03-16T10:49:42.869Z,54.97
2019-03-16T10:50:43.213Z,54.38
2019-03-16T10:51:43.604Z,53.36
2019-03-16T10:52:43.795Z,53.54
2019-03-16T10:53:44.113Z,52.42
2019-03-16T10:54:44.423Z,52.11
2019-03-16T10:55:44.750Z,52.00
2019-03-16T10:56:45.027Z,52.11
2019-03-16T10:57:45.338Z,51.98
2019-03-16T10:58:55.648Z,52.42
2019-03-16T10:59:47.127Z,52.54
2019-03-16T11:00:46.296Z,52.42
2019-03-16T11:01:46.568Z,52.42
2019-03-16T11:02:46.891Z,52.21
2019-03-16T11:03:47.216Z,52.31
2019-03-16T11:04:47.505Z,51.59
2019-03-16T11:05:47.855Z,52.42
2019-03-16T11:06:48.139Z,52.23
2019-03-16T11:07:48.487Z,52.75
2019-03-16T11:08:48.733Z,52.23
2019-03-16T11:09:49.024Z,52.95
2019-03-16T11:10:49.403Z,52.44
2019-03-16T11:11:49.674Z,52.44
2019-03-16T11:12:49.955Z,52.05
2019-03-16T11:13:50.272Z,52.15
2019-03-16T11:14:50.570Z,52.87
2019-03-16T11:15:50.936Z,53.69
2019-03-16T11:16:51.178Z,53.39
2019-03-16T11:17:51.496Z,53.69
2019-03-16T11:18:51.790Z,52.36
2019-03-16T11:19:52.097Z,53.69
2019-03-16T11:20:52.438Z,53.18
2019-03-16T11:21:52.728Z,54.10
2019-03-16T11:22:53.045Z,54.61
2019-03-16T11:23:53.379Z,54.72
2019-03-16T11:24:53.764Z,55.30
2019-03-16T11:25:54.210Z,55.62
2019-03-16T11:26:54.268Z,55.62
2019-03-16T11:27:54.582Z,56.43
2019-03-16T11:28:54.896Z,56.13
2019-03-16T11:29:55.188Z,56.33
2019-03-16T11:30:55.494Z,55.92
2019-03-16T11:31:55.804Z,56.26
2019-03-16T11:32:56.269Z,56.26
2019-03-16T11:33:56.455Z,55.94
2019-03-16T11:34:56.741Z,56.26
2019-03-16T11:35:57.051Z,54.82
2019-03-16T11:36:57.360Z,55.54
2019-03-16T11:37:57.682Z,55.15
2019-03-16T11:38:57.997Z,54.85
2019-03-16T11:39:58.289Z,55.59
2019-03-16T11:40:58.638Z,56.10
2019-03-16T11:41:58.884Z,56.64
2019-03-16T11:42:59.204Z,57.03
2019-03-16T11:43:59.523Z,57.13
2019-03-16T11:44:59.812Z,57.46
2019-03-16T11:46:00.127Z,57.77
2019-03-16T11:47:00.406Z,57.03
2019-03-16T11:48:00.761Z,58.49
2019-03-16T11:49:01.140Z,57.36
2019-03-16T11:50:01.350Z,57.18
2019-03-16T11:51:01.660Z,57.59
2019-03-16T11:52:01.965Z,57.79
2019-03-16T11:53:02.268Z,58.51
2019-03-16T11:54:02.594Z,58.51
2019-03-16T11:55:02.899Z,58.62
2019-03-16T11:56:03.215Z,58.51
2019-03-16T11:57:03.640Z,59.03
2019-03-16T11:58:03.865Z,58.54
2019-03-16T11:59:04.156Z,58.54
2019-03-16T12:00:04.463Z,58.64
2019-03-16T12:01:04.772Z,59.06
2019-03-16T12:02:05.758Z,58.64
2019-03-16T12:03:05.396Z,58.34
2019-03-16T12:04:05.732Z,58.75
2019-03-16T12:05:06.058Z,58.03
2019-03-16T12:06:06.396Z,58.13
2019-03-16T12:07:06.647Z,59.06
2019-03-16T12:08:06.970Z,58.44
2019-03-16T12:09:07.250Z,58.51
2019-03-16T12:10:07.541Z,58.72
2019-03-16T12:11:07.861Z,59.47
2019-03-16T12:12:08.188Z,59.67
2019-03-16T12:13:16.735Z,59.57
2019-03-16T12:14:09.911Z,60.19
2019-03-16T12:15:09.087Z,61.21
2019-03-16T12:16:09.412Z,61.00
2019-03-16T12:17:09.739Z,61.18
2019-03-16T12:18:10.049Z,61.83
2019-03-16T12:19:10.349Z,62.85
2019-03-16T12:20:10.626Z,63.89
2019-03-16T12:21:10.935Z,64.57
2019-03-16T12:22:11.351Z,65.29
2019-03-16T12:23:11.579Z,65.19
2019-03-16T12:24:11.875Z,66.35
2019-03-16T12:25:12.167Z,67.24
2019-03-16T12:26:12.460Z,67.03
2019-03-16T12:27:12.800Z,68.19
2019-03-16T12:28:13.121Z,68.81
2019-03-16T12:29:13.416Z,69.64
2019-03-16T12:30:13.762Z,69.84
2019-03-16T12:31:13.995Z,70.59
2019-03-16T12:32:14.302Z,71.21
2019-03-16T12:33:14.619Z,72.55
2019-03-16T12:34:14.966Z,72.68
2019-03-16T12:35:15.255Z,73.19
2019-03-16T12:36:15.558Z,71.93
2019-03-16T12:37:15.888Z,72.27
2019-03-16T12:38:16.199Z,73.19
2019-03-16T12:39:16.577Z,72.27
2019-03-16T12:40:16.827Z,72.30
2019-03-16T12:41:17.129Z,73.19
2019-03-16T12:42:17.448Z,73.81
2019-03-16T12:43:17.735Z,74.33
2019-03-16T12:44:18.082Z,75.56
2019-03-16T12:45:20.182Z,75.76
2019-03-16T12:46:18.691Z,75.67
2019-03-16T12:47:19.144Z,75.90
2019-03-16T12:48:19.276Z,76.52
2019-03-16T12:49:19.640Z,75.84
2019-03-16T12:50:19.902Z,76.31
2019-03-16T12:51:20.210Z,76.31
2019-03-16T12:52:20.534Z,75.94
2019-03-16T12:53:20.830Z,76.14
2019-03-16T12:54:21.129Z,76.56
2019-03-16T12:55:21.585Z,76.86
2019-03-16T12:56:21.755Z,77.42